sensor_id;sensor_type;location;lat;lon;timestamp;temperature;humidity
38866;DHT22;62686;48.984;8.394;2023-11-21T00:00:06;9.10;99.90
38866;DHT22;62686;48.984;8.394;2023-11-21T00:02:39;9.20;99.90
38866;DHT22;62686;48.984;8.394;2023-11-21T00:05:08;9.20;99.90
38866;DHT22;62686;48.984;8.394;2023-11-21T00:07:37;9.20;99.90
38866;DHT22;62686;48.984;8.394;2023-11-21T00:10:07;9.20;99.90
38866;DHT22;62686;48.984;8.394;2023-11-21T00:12:38;9.20;99.90
38866;DHT22;62686;48.984;8.394;2023-11-21T00:15:09;9.20;99.90
38866;DHT22;62686;48.984;8.394;2023-11-21T00:17:39;9.20;99.90
38866;DHT22;62686;48.984;8.394;2023-11-21T00:20:08;9.20;99.90
38866;DHT22;62686;48.984;8.394;2023-11-21T00:22:39;9.20;99.90
38866;DHT22;62686;48.984;8.394;2023-11-21T00:25:08;9.20;99.90
38866;DHT22;62686;48.984;8.394;2023-11-21T00:27:38;9.20;99.90
38866;DHT22;62686;48.984;8.394;2023-11-21T00:30:07;9.20;99.90
38866;DHT22;62686;48.984;8.394;2023-11-21T00:32:36;9.20;99.90
38866;DHT22;62686;48.984;8.394;2023-11-21T00:35:05;9.20;99.90
38866;DHT22;62686;48.984;8.394;2023-11-21T00:37:34;9.20;99.90
38866;DHT22;62686;48.984;8.394;2023-11-21T00:40:03;9.30;99.90
38866;DHT22;62686;48.984;8.394;2023-11-21T00:42:33;9.20;99.90
38866;DHT22;62686;48.984;8.394;2023-11-21T00:45:03;9.20;99.90
38866;DHT22;62686;48.984;8.394;2023-11-21T00:47:33;9.30;99.90
38866;DHT22;62686;48.984;8.394;2023-11-21T00:50:01;9.30;99.90
38866;DHT22;62686;48.984;8.394;2023-11-21T00:52:29;9.30;99.90
38866;DHT22;62686;48.984;8.394;2023-11-21T00:54:58;9.20;99.90
38866;DHT22;62686;48.984;8.394;2023-11-21T00:57:27;9.30;99.90
38866;DHT22;62686;48.984;8.394;2023-11-21T00:59:55;9.30;99.90
38866;DHT22;62686;48.984;8.394;2023-11-21T01:02:25;9.20;99.90
38866;DHT22;62686;48.984;8.394;2023-11-21T01:04:53;9.30;99.90
38866;DHT22;62686;48.984;8.394;2023-11-21T01:07:22;9.20;99.90
38866;DHT22;62686;48.984;8.394;2023-11-21T01:09:51;9.20;99.90
38866;DHT22;62686;48.984;8.394;2023-11-21T01:12:19;9.30;99.90
38866;DHT22;62686;48.984;8.394;2023-11-21T01:14:48;9.30;99.90
38866;DHT22;62686;48.984;8.394;2023-11-21T01:17:18;9.30;99.90
38866;DHT22;62686;48.984;8.394;2023-11-21T01:19:51;9.20;99.90
38866;DHT22;62686;48.984;8.394;2023-11-21T01:22:20;9.20;99.90
38866;DHT22;62686;48.984;8.394;2023-11-21T01:24:53;9.20;99.90
38866;DHT22;62686;48.984;8.394;2023-11-21T01:27:21;9.30;99.90
38866;DHT22;62686;48.984;8.394;2023-11-21T01:29:49;9.30;99.90
38866;DHT22;62686;48.984;8.394;2023-11-21T01:32:20;9.30;99.90
38866;DHT22;62686;48.984;8.394;2023-11-21T01:34:52;9.30;99.90
38866;DHT22;62686;48.984;8.394;2023-11-21T01:37:20;9.30;99.90
38866;DHT22;62686;48.984;8.394;2023-11-21T01:39:49;9.20;99.90
38866;DHT22;62686;48.984;8.394;2023-11-21T01:42:18;9.20;99.90
38866;DHT22;62686;48.984;8.394;2023-11-21T01:44:46;9.20;99.90
38866;DHT22;62686;48.984;8.394;2023-11-21T01:47:16;9.20;99.90
38866;DHT22;62686;48.984;8.394;2023-11-21T01:49:45;9.20;99.90
38866;DHT22;62686;48.984;8.394;2023-11-21T01:52:16;9.20;99.90
38866;DHT22;62686;48.984;8.394;2023-11-21T01:54:44;9.20;99.90
38866;DHT22;62686;48.984;8.394;2023-11-21T01:57:13;9.20;99.90
38866;DHT22;62686;48.984;8.394;2023-11-21T01:59:43;9.10;99.90
38866;DHT22;62686;48.984;8.394;2023-11-21T02:02:12;9.10;99.90
38866;DHT22;62686;48.984;8.394;2023-11-21T02:04:41;9.10;99.90
38866;DHT22;62686;48.984;8.394;2023-11-21T02:07:09;9.10;99.90
38866;DHT22;62686;48.984;8.394;2023-11-21T02:09:39;9.10;99.90
38866;DHT22;62686;48.984;8.394;2023-11-21T02:12:09;9.10;99.90
38866;DHT22;62686;48.984;8.394;2023-11-21T02:14:38;9.10;99.90
38866;DHT22;62686;48.984;8.394;2023-11-21T02:17:07;9.00;99.90
38866;DHT22;62686;48.984;8.394;2023-11-21T02:19:37;8.90;99.90
38866;DHT22;62686;48.984;8.394;2023-11-21T02:22:06;8.80;99.90
38866;DHT22;62686;48.984;8.394;2023-11-21T02:24:37;8.70;99.90
38866;DHT22;62686;48.984;8.394;2023-11-21T02:27:06;8.60;99.90
38866;DHT22;62686;48.984;8.394;2023-11-21T02:29:36;8.50;99.90
38866;DHT22;62686;48.984;8.394;2023-11-21T02:32:09;8.40;99.90
38866;DHT22;62686;48.984;8.394;2023-11-21T02:34:39;8.40;99.90
38866;DHT22;62686;48.984;8.394;2023-11-21T02:37:07;8.20;99.90
38866;DHT22;62686;48.984;8.394;2023-11-21T02:39:37;8.20;99.90
38866;DHT22;62686;48.984;8.394;2023-11-21T02:42:06;8.20;99.90
38866;DHT22;62686;48.984;8.394;2023-11-21T02:44:35;8.30;99.90
38866;DHT22;62686;48.984;8.394;2023-11-21T02:47:04;8.20;99.90
38866;DHT22;62686;48.984;8.394;2023-11-21T02:49:33;8.30;99.90
38866;DHT22;62686;48.984;8.394;2023-11-21T02:52:04;8.40;99.90
38866;DHT22;62686;48.984;8.394;2023-11-21T02:54:33;8.40;99.90
38866;DHT22;62686;48.984;8.394;2023-11-21T02:57:04;8.40;99.90
38866;DHT22;62686;48.984;8.394;2023-11-21T02:59:34;8.50;99.90
38866;DHT22;62686;48.984;8.394;2023-11-21T03:02:03;8.40;99.90
38866;DHT22;62686;48.984;8.394;2023-11-21T03:04:35;8.40;99.90
38866;DHT22;62686;48.984;8.394;2023-11-21T03:07:03;8.30;99.90
38866;DHT22;62686;48.984;8.394;2023-11-21T03:09:32;8.40;99.90
38866;DHT22;62686;48.984;8.394;2023-11-21T03:12:01;8.30;99.90
38866;DHT22;62686;48.984;8.394;2023-11-21T03:14:30;8.30;99.90
38866;DHT22;62686;48.984;8.394;2023-11-21T03:16:59;8.30;99.90
38866;DHT22;62686;48.984;8.394;2023-11-21T03:19:27;8.40;99.90
38866;DHT22;62686;48.984;8.394;2023-11-21T03:21:56;8.30;99.90
38866;DHT22;62686;48.984;8.394;2023-11-21T03:24:24;8.30;99.90
38866;DHT22;62686;48.984;8.394;2023-11-21T03:26:53;8.30;99.90
38866;DHT22;62686;48.984;8.394;2023-11-21T03:29:22;8.40;99.90
38866;DHT22;62686;48.984;8.394;2023-11-21T03:31:52;8.40;99.90
38866;DHT22;62686;48.984;8.394;2023-11-21T03:34:24;8.50;99.90
38866;DHT22;62686;48.984;8.394;2023-11-21T03:36:54;8.50;99.90
38866;DHT22;62686;48.984;8.394;2023-11-21T03:39:23;8.60;99.90
38866;DHT22;62686;48.984;8.394;2023-11-21T03:41:52;8.60;99.90
38866;DHT22;62686;48.984;8.394;2023-11-21T03:44:21;8.60;99.90
38866;DHT22;62686;48.984;8.394;2023-11-21T03:46:49;8.60;99.90
38866;DHT22;62686;48.984;8.394;2023-11-21T03:49:19;8.60;99.90
38866;DHT22;62686;48.984;8.394;2023-11-21T03:51:47;8.70;99.90
38866;DHT22;62686;48.984;8.394;2023-11-21T03:54:14;8.70;99.90
38866;DHT22;62686;48.984;8.394;2023-11-21T03:56:43;8.70;99.90
38866;DHT22;62686;48.984;8.394;2023-11-21T03:59:11;8.70;99.90
38866;DHT22;62686;48.984;8.394;2023-11-21T04:01:40;8.70;99.90
38866;DHT22;62686;48.984;8.394;2023-11-21T04:04:09;8.70;99.90
38866;DHT22;62686;48.984;8.394;2023-11-21T04:06:38;8.60;99.90
38866;DHT22;62686;48.984;8.394;2023-11-21T04:09:07;8.60;99.90
38866;DHT22;62686;48.984;8.394;2023-11-21T04:11:36;8.60;99.90
38866;DHT22;62686;48.984;8.394;2023-11-21T04:14:04;8.60;99.90
38866;DHT22;62686;48.984;8.394;2023-11-21T04:16:33;8.60;99.90
38866;DHT22;62686;48.984;8.394;2023-11-21T04:19:01;8.60;99.90
38866;DHT22;62686;48.984;8.394;2023-11-21T04:21:30;8.70;99.90
38866;DHT22;62686;48.984;8.394;2023-11-21T04:24:01;8.60;99.90
38866;DHT22;62686;48.984;8.394;2023-11-21T04:26:29;8.60;99.90
38866;DHT22;62686;48.984;8.394;2023-11-21T04:28:58;8.70;99.90
38866;DHT22;62686;48.984;8.394;2023-11-21T04:31:27;8.60;99.90
38866;DHT22;62686;48.984;8.394;2023-11-21T04:33:55;8.60;99.90
38866;DHT22;62686;48.984;8.394;2023-11-21T04:36:23;8.70;99.90
38866;DHT22;62686;48.984;8.394;2023-11-21T04:38:52;8.70;99.90
38866;DHT22;62686;48.984;8.394;2023-11-21T04:41:22;8.70;99.90
38866;DHT22;62686;48.984;8.394;2023-11-21T04:43:50;8.70;99.90
38866;DHT22;62686;48.984;8.394;2023-11-21T04:46:19;8.70;99.90
38866;DHT22;62686;48.984;8.394;2023-11-21T04:48:47;8.70;99.90
38866;DHT22;62686;48.984;8.394;2023-11-21T04:51:15;8.70;99.90
38866;DHT22;62686;48.984;8.394;2023-11-21T04:53:44;8.60;99.90
38866;DHT22;62686;48.984;8.394;2023-11-21T04:56:12;8.60;99.90
38866;DHT22;62686;48.984;8.394;2023-11-21T04:58:44;8.70;99.90
38866;DHT22;62686;48.984;8.394;2023-11-21T05:01:12;8.70;99.90
38866;DHT22;62686;48.984;8.394;2023-11-21T05:03:41;8.70;99.90
38866;DHT22;62686;48.984;8.394;2023-11-21T05:06:10;8.80;99.90
38866;DHT22;62686;48.984;8.394;2023-11-21T05:08:38;8.70;99.90
38866;DHT22;62686;48.984;8.394;2023-11-21T05:11:06;8.80;99.90
38866;DHT22;62686;48.984;8.394;2023-11-21T05:13:37;8.80;99.90
38866;DHT22;62686;48.984;8.394;2023-11-21T05:16:08;8.70;99.90
38866;DHT22;62686;48.984;8.394;2023-11-21T05:18:36;8.80;99.90
38866;DHT22;62686;48.984;8.394;2023-11-21T05:21:05;8.80;99.90
38866;DHT22;62686;48.984;8.394;2023-11-21T05:23:34;8.70;99.90
38866;DHT22;62686;48.984;8.394;2023-11-21T05:26:02;8.80;99.90
38866;DHT22;62686;48.984;8.394;2023-11-21T05:28:30;8.80;99.90
38866;DHT22;62686;48.984;8.394;2023-11-21T05:30:59;8.80;99.90
38866;DHT22;62686;48.984;8.394;2023-11-21T05:33:30;8.80;99.90
38866;DHT22;62686;48.984;8.394;2023-11-21T05:36:00;8.80;99.90
38866;DHT22;62686;48.984;8.394;2023-11-21T05:38:28;8.80;99.90
38866;DHT22;62686;48.984;8.394;2023-11-21T05:40:56;8.90;99.90
38866;DHT22;62686;48.984;8.394;2023-11-21T05:43:25;8.80;99.90
38866;DHT22;62686;48.984;8.394;2023-11-21T05:45:56;8.90;99.90
38866;DHT22;62686;48.984;8.394;2023-11-21T05:48:33;8.80;99.90
38866;DHT22;62686;48.984;8.394;2023-11-21T05:51:04;8.80;99.90
38866;DHT22;62686;48.984;8.394;2023-11-21T05:53:32;8.90;99.90
38866;DHT22;62686;48.984;8.394;2023-11-21T05:56:01;8.90;99.90
38866;DHT22;62686;48.984;8.394;2023-11-21T05:58:30;8.90;99.90
38866;DHT22;62686;48.984;8.394;2023-11-21T06:00:59;8.90;99.90
38866;DHT22;62686;48.984;8.394;2023-11-21T06:03:27;8.90;99.90
38866;DHT22;62686;48.984;8.394;2023-11-21T06:05:57;8.90;99.90
38866;DHT22;62686;48.984;8.394;2023-11-21T06:08:25;8.90;99.90
38866;DHT22;62686;48.984;8.394;2023-11-21T06:10:53;8.80;99.90
38866;DHT22;62686;48.984;8.394;2023-11-21T06:13:22;8.90;99.90
38866;DHT22;62686;48.984;8.394;2023-11-21T06:15:51;8.80;99.90
38866;DHT22;62686;48.984;8.394;2023-11-21T06:18:20;8.80;99.90
38866;DHT22;62686;48.984;8.394;2023-11-21T06:20:48;8.90;99.90
38866;DHT22;62686;48.984;8.394;2023-11-21T06:23:18;8.90;99.90
38866;DHT22;62686;48.984;8.394;2023-11-21T06:25:47;8.90;99.90
38866;DHT22;62686;48.984;8.394;2023-11-21T06:28:15;8.90;99.90
38866;DHT22;62686;48.984;8.394;2023-11-21T06:30:44;8.80;99.90
38866;DHT22;62686;48.984;8.394;2023-11-21T06:33:13;8.90;99.90
38866;DHT22;62686;48.984;8.394;2023-11-21T06:35:41;8.90;99.90
38866;DHT22;62686;48.984;8.394;2023-11-21T06:38:10;8.90;99.90
38866;DHT22;62686;48.984;8.394;2023-11-21T06:40:40;8.90;99.90
38866;DHT22;62686;48.984;8.394;2023-11-21T06:43:08;8.90;99.90
38866;DHT22;62686;48.984;8.394;2023-11-21T06:45:37;8.90;99.90
38866;DHT22;62686;48.984;8.394;2023-11-21T06:48:05;8.90;99.90
38866;DHT22;62686;48.984;8.394;2023-11-21T06:50:34;8.90;99.90
38866;DHT22;62686;48.984;8.394;2023-11-21T06:53:02;8.90;99.90
38866;DHT22;62686;48.984;8.394;2023-11-21T06:55:33;8.90;99.90
38866;DHT22;62686;48.984;8.394;2023-11-21T06:58:03;8.90;99.90
38866;DHT22;62686;48.984;8.394;2023-11-21T07:00:32;8.90;99.90
38866;DHT22;62686;48.984;8.394;2023-11-21T07:03:00;8.90;99.90
38866;DHT22;62686;48.984;8.394;2023-11-21T07:05:28;8.90;99.90
38866;DHT22;62686;48.984;8.394;2023-11-21T07:07:57;8.90;99.90
38866;DHT22;62686;48.984;8.394;2023-11-21T07:10:31;8.90;99.90
38866;DHT22;62686;48.984;8.394;2023-11-21T07:12:59;8.90;99.90
38866;DHT22;62686;48.984;8.394;2023-11-21T07:15:29;8.90;99.90
38866;DHT22;62686;48.984;8.394;2023-11-21T07:17:58;9.00;99.90
38866;DHT22;62686;48.984;8.394;2023-11-21T07:20:26;9.00;99.90
38866;DHT22;62686;48.984;8.394;2023-11-21T07:22:54;9.00;99.90
38866;DHT22;62686;48.984;8.394;2023-11-21T07:25:26;9.00;99.90
38866;DHT22;62686;48.984;8.394;2023-11-21T07:27:55;9.00;99.90
38866;DHT22;62686;48.984;8.394;2023-11-21T07:30:23;9.00;99.90
38866;DHT22;62686;48.984;8.394;2023-11-21T07:32:53;9.00;99.90
38866;DHT22;62686;48.984;8.394;2023-11-21T07:35:22;9.00;99.90
38866;DHT22;62686;48.984;8.394;2023-11-21T07:37:50;9.00;99.90
38866;DHT22;62686;48.984;8.394;2023-11-21T07:40:19;9.00;99.90
38866;DHT22;62686;48.984;8.394;2023-11-21T07:42:48;9.00;99.90
38866;DHT22;62686;48.984;8.394;2023-11-21T07:45:17;9.00;99.90
38866;DHT22;62686;48.984;8.394;2023-11-21T07:47:46;9.00;99.90
38866;DHT22;62686;48.984;8.394;2023-11-21T07:50:16;9.00;99.90
38866;DHT22;62686;48.984;8.394;2023-11-21T07:52:44;9.00;99.90
38866;DHT22;62686;48.984;8.394;2023-11-21T07:55:13;8.90;99.90
38866;DHT22;62686;48.984;8.394;2023-11-21T07:57:41;8.90;99.90
38866;DHT22;62686;48.984;8.394;2023-11-21T08:00:11;8.90;99.90
38866;DHT22;62686;48.984;8.394;2023-11-21T08:02:42;9.00;99.90
38866;DHT22;62686;48.984;8.394;2023-11-21T08:05:12;9.00;99.90
38866;DHT22;62686;48.984;8.394;2023-11-21T08:07:45;9.00;99.90
38866;DHT22;62686;48.984;8.394;2023-11-21T08:10:13;9.00;99.90
38866;DHT22;62686;48.984;8.394;2023-11-21T08:12:41;9.10;99.90
38866;DHT22;62686;48.984;8.394;2023-11-21T08:15:10;9.10;99.90
38866;DHT22;62686;48.984;8.394;2023-11-21T08:17:38;9.10;99.90
38866;DHT22;62686;48.984;8.394;2023-11-21T08:20:08;9.10;99.90
38866;DHT22;62686;48.984;8.394;2023-11-21T08:22:38;9.10;99.90
38866;DHT22;62686;48.984;8.394;2023-11-21T08:25:10;9.10;99.90
38866;DHT22;62686;48.984;8.394;2023-11-21T08:27:39;9.10;99.90
38866;DHT22;62686;48.984;8.394;2023-11-21T08:30:08;9.10;99.90
38866;DHT22;62686;48.984;8.394;2023-11-21T08:32:37;9.10;99.90
38866;DHT22;62686;48.984;8.394;2023-11-21T08:35:07;9.10;99.90
38866;DHT22;62686;48.984;8.394;2023-11-21T08:37:36;9.20;99.90
38866;DHT22;62686;48.984;8.394;2023-11-21T08:40:06;9.20;99.90
38866;DHT22;62686;48.984;8.394;2023-11-21T08:42:39;9.20;99.90
38866;DHT22;62686;48.984;8.394;2023-11-21T08:45:08;9.30;99.90
38866;DHT22;62686;48.984;8.394;2023-11-21T08:47:37;9.30;99.90
38866;DHT22;62686;48.984;8.394;2023-11-21T08:50:07;9.40;99.90
38866;DHT22;62686;48.984;8.394;2023-11-21T08:52:36;9.50;99.90
38866;DHT22;62686;48.984;8.394;2023-11-21T08:55:05;9.60;99.90
38866;DHT22;62686;48.984;8.394;2023-11-21T08:57:37;9.60;99.90
38866;DHT22;62686;48.984;8.394;2023-11-21T09:00:08;9.60;99.90
38866;DHT22;62686;48.984;8.394;2023-11-21T09:02:38;9.50;99.90
38866;DHT22;62686;48.984;8.394;2023-11-21T09:05:09;9.50;99.90
38866;DHT22;62686;48.984;8.394;2023-11-21T09:07:39;9.50;99.90
38866;DHT22;62686;48.984;8.394;2023-11-21T09:10:09;9.50;99.90
38866;DHT22;62686;48.984;8.394;2023-11-21T09:12:39;9.60;99.90
38866;DHT22;62686;48.984;8.394;2023-11-21T09:15:10;9.60;99.90
38866;DHT22;62686;48.984;8.394;2023-11-21T09:17:38;9.70;99.90
38866;DHT22;62686;48.984;8.394;2023-11-21T09:20:08;9.70;99.90
38866;DHT22;62686;48.984;8.394;2023-11-21T09:22:38;9.70;99.90
38866;DHT22;62686;48.984;8.394;2023-11-21T09:25:07;9.80;99.90
38866;DHT22;62686;48.984;8.394;2023-11-21T09:27:36;9.80;99.90
38866;DHT22;62686;48.984;8.394;2023-11-21T09:30:07;9.80;99.90
38866;DHT22;62686;48.984;8.394;2023-11-21T09:32:38;9.90;99.90
38866;DHT22;62686;48.984;8.394;2023-11-21T09:35:08;9.90;99.90
38866;DHT22;62686;48.984;8.394;2023-11-21T09:37:37;9.90;99.90
38866;DHT22;62686;48.984;8.394;2023-11-21T09:40:09;9.90;99.90
38866;DHT22;62686;48.984;8.394;2023-11-21T09:42:46;9.90;99.90
38866;DHT22;62686;48.984;8.394;2023-11-21T09:45:24;9.90;99.90
38866;DHT22;62686;48.984;8.394;2023-11-21T09:47:54;9.80;99.90
38866;DHT22;62686;48.984;8.394;2023-11-21T09:50:24;9.80;99.90
38866;DHT22;62686;48.984;8.394;2023-11-21T09:53:03;9.70;99.90
38866;DHT22;62686;48.984;8.394;2023-11-21T09:55:43;9.70;99.90
38866;DHT22;62686;48.984;8.394;2023-11-21T10:22:10;9.70;99.90
38866;DHT22;62686;48.984;8.394;2023-11-21T10:24:38;9.70;99.90
38866;DHT22;62686;48.984;8.394;2023-11-21T10:27:07;9.70;99.90
38866;DHT22;62686;48.984;8.394;2023-11-21T10:29:35;9.80;99.90
38866;DHT22;62686;48.984;8.394;2023-11-21T10:32:04;9.80;99.90
38866;DHT22;62686;48.984;8.394;2023-11-21T10:34:33;9.70;99.90
38866;DHT22;62686;48.984;8.394;2023-11-21T10:37:11;9.70;99.90
38866;DHT22;62686;48.984;8.394;2023-11-21T10:39:39;9.70;99.90
38866;DHT22;62686;48.984;8.394;2023-11-21T10:42:10;9.70;99.90
38866;DHT22;62686;48.984;8.394;2023-11-21T10:44:38;9.70;99.90
38866;DHT22;62686;48.984;8.394;2023-11-21T10:47:11;9.60;99.90
38866;DHT22;62686;48.984;8.394;2023-11-21T10:49:40;9.50;99.90
38866;DHT22;62686;48.984;8.394;2023-11-21T11:08:38;9.70;99.90
38866;DHT22;62686;48.984;8.394;2023-11-21T11:11:08;9.70;99.90
38866;DHT22;62686;48.984;8.394;2023-11-21T11:13:39;9.80;99.90
38866;DHT22;62686;48.984;8.394;2023-11-21T11:16:13;9.80;99.90
38866;DHT22;62686;48.984;8.394;2023-11-21T11:18:45;9.90;99.90
38866;DHT22;62686;48.984;8.394;2023-11-21T11:21:23;10.00;99.90
38866;DHT22;62686;48.984;8.394;2023-11-21T11:24:11;10.10;99.90
38866;DHT22;62686;48.984;8.394;2023-11-21T11:26:48;10.20;99.90
38866;DHT22;62686;48.984;8.394;2023-11-21T11:29:27;10.20;99.90
38866;DHT22;62686;48.984;8.394;2023-11-21T11:32:10;10.10;99.90
38866;DHT22;62686;48.984;8.394;2023-11-21T11:34:45;10.00;99.90
38866;DHT22;62686;48.984;8.394;2023-11-21T11:37:16;9.90;99.90
38866;DHT22;62686;48.984;8.394;2023-11-21T11:39:49;9.80;99.90
38866;DHT22;62686;48.984;8.394;2023-11-21T11:42:17;9.70;99.90
38866;DHT22;62686;48.984;8.394;2023-11-21T11:44:51;9.70;99.90
38866;DHT22;62686;48.984;8.394;2023-11-21T11:47:23;9.70;99.90
38866;DHT22;62686;48.984;8.394;2023-11-21T11:50:00;9.70;99.90
38866;DHT22;62686;48.984;8.394;2023-11-21T11:52:35;9.70;99.90
38866;DHT22;62686;48.984;8.394;2023-11-21T11:55:09;9.70;99.90
38866;DHT22;62686;48.984;8.394;2023-11-21T11:57:42;9.70;99.90
38866;DHT22;62686;48.984;8.394;2023-11-21T12:00:16;9.70;99.90
38866;DHT22;62686;48.984;8.394;2023-11-21T12:02:48;9.70;99.90
38866;DHT22;62686;48.984;8.394;2023-11-21T12:05:19;9.80;99.90
38866;DHT22;62686;48.984;8.394;2023-11-21T12:07:51;9.90;99.90
38866;DHT22;62686;48.984;8.394;2023-11-21T12:10:24;10.00;99.90
38866;DHT22;62686;48.984;8.394;2023-11-21T12:12:54;10.10;99.90
38866;DHT22;62686;48.984;8.394;2023-11-21T12:15:25;10.20;99.90
38866;DHT22;62686;48.984;8.394;2023-11-21T12:17:56;10.20;99.90
38866;DHT22;62686;48.984;8.394;2023-11-21T12:20:26;10.10;99.90
38866;DHT22;62686;48.984;8.394;2023-11-21T12:22:56;10.20;99.90
38866;DHT22;62686;48.984;8.394;2023-11-21T12:25:28;10.20;99.90
38866;DHT22;62686;48.984;8.394;2023-11-21T12:27:59;10.10;99.90
38866;DHT22;62686;48.984;8.394;2023-11-21T12:30:31;10.10;99.90
38866;DHT22;62686;48.984;8.394;2023-11-21T12:33:03;10.10;99.90
38866;DHT22;62686;48.984;8.394;2023-11-21T12:35:34;10.20;99.90
38866;DHT22;62686;48.984;8.394;2023-11-21T12:38:04;10.10;99.90
38866;DHT22;62686;48.984;8.394;2023-11-21T12:40:34;10.10;99.90
38866;DHT22;62686;48.984;8.394;2023-11-21T12:43:02;10.10;99.90
38866;DHT22;62686;48.984;8.394;2023-11-21T12:45:32;10.20;99.90
38866;DHT22;62686;48.984;8.394;2023-11-21T12:48:02;10.20;99.90
38866;DHT22;62686;48.984;8.394;2023-11-21T12:50:35;10.30;99.90
38866;DHT22;62686;48.984;8.394;2023-11-21T12:53:05;10.30;99.90
38866;DHT22;62686;48.984;8.394;2023-11-21T12:55:36;10.20;99.90
38866;DHT22;62686;48.984;8.394;2023-11-21T12:58:07;10.20;99.90
38866;DHT22;62686;48.984;8.394;2023-11-21T13:00:38;10.10;99.90
38866;DHT22;62686;48.984;8.394;2023-11-21T13:03:10;10.10;99.90
38866;DHT22;62686;48.984;8.394;2023-11-21T13:05:45;10.10;99.90
38866;DHT22;62686;48.984;8.394;2023-11-21T13:08:17;10.10;99.90
38866;DHT22;62686;48.984;8.394;2023-11-21T13:10:52;10.30;99.90
38866;DHT22;62686;48.984;8.394;2023-11-21T13:13:22;10.50;99.90
38866;DHT22;62686;48.984;8.394;2023-11-21T13:15:53;10.60;99.90
38866;DHT22;62686;48.984;8.394;2023-11-21T13:18:23;10.70;99.90
38866;DHT22;62686;48.984;8.394;2023-11-21T13:20:53;10.80;99.90
38866;DHT22;62686;48.984;8.394;2023-11-21T13:23:23;10.80;99.90
38866;DHT22;62686;48.984;8.394;2023-11-21T13:25:54;10.80;99.90
38866;DHT22;62686;48.984;8.394;2023-11-21T13:28:23;10.80;99.90
38866;DHT22;62686;48.984;8.394;2023-11-21T13:30:58;10.70;99.90
38866;DHT22;62686;48.984;8.394;2023-11-21T13:33:29;10.80;99.90
38866;DHT22;62686;48.984;8.394;2023-11-21T13:35:59;10.70;99.90
38866;DHT22;62686;48.984;8.394;2023-11-21T13:38:29;10.60;99.90
38866;DHT22;62686;48.984;8.394;2023-11-21T13:41:01;10.60;99.90
38866;DHT22;62686;48.984;8.394;2023-11-21T13:43:34;10.60;99.90
38866;DHT22;62686;48.984;8.394;2023-11-21T13:46:04;10.70;99.90
38866;DHT22;62686;48.984;8.394;2023-11-21T13:48:40;10.80;99.90
38866;DHT22;62686;48.984;8.394;2023-11-21T13:51:09;11.00;99.90
38866;DHT22;62686;48.984;8.394;2023-11-21T13:53:44;11.20;99.90
38866;DHT22;62686;48.984;8.394;2023-11-21T13:56:16;11.50;99.90
38866;DHT22;62686;48.984;8.394;2023-11-21T13:58:49;11.60;99.90
38866;DHT22;62686;48.984;8.394;2023-11-21T14:01:18;11.60;99.90
38866;DHT22;62686;48.984;8.394;2023-11-21T14:04:09;11.40;99.90
38866;DHT22;62686;48.984;8.394;2023-11-21T14:06:49;11.20;99.90
38866;DHT22;62686;48.984;8.394;2023-11-21T14:09:22;11.10;99.90
38866;DHT22;62686;48.984;8.394;2023-11-21T14:12:00;11.00;99.90
38866;DHT22;62686;48.984;8.394;2023-11-21T14:14:33;10.90;99.90
38866;DHT22;62686;48.984;8.394;2023-11-21T14:17:02;10.90;99.90
38866;DHT22;62686;48.984;8.394;2023-11-21T14:19:33;10.90;99.90
38866;DHT22;62686;48.984;8.394;2023-11-21T14:22:05;10.90;99.90
38866;DHT22;62686;48.984;8.394;2023-11-21T14:24:36;10.90;99.90
38866;DHT22;62686;48.984;8.394;2023-11-21T14:27:12;10.90;99.90
38866;DHT22;62686;48.984;8.394;2023-11-21T14:29:41;11.00;99.90
38866;DHT22;62686;48.984;8.394;2023-11-21T14:32:11;11.00;99.90
38866;DHT22;62686;48.984;8.394;2023-11-21T14:34:41;11.00;99.90
38866;DHT22;62686;48.984;8.394;2023-11-21T14:37:12;11.00;99.90
38866;DHT22;62686;48.984;8.394;2023-11-21T14:39:41;11.00;99.90
38866;DHT22;62686;48.984;8.394;2023-11-21T14:42:14;11.00;99.90
38866;DHT22;62686;48.984;8.394;2023-11-21T14:44:43;10.90;99.90
38866;DHT22;62686;48.984;8.394;2023-11-21T14:47:12;10.90;99.90
38866;DHT22;62686;48.984;8.394;2023-11-21T14:49:43;10.90;99.90
38866;DHT22;62686;48.984;8.394;2023-11-21T14:52:20;10.90;99.90
38866;DHT22;62686;48.984;8.394;2023-11-21T14:55:00;10.90;99.90
38866;DHT22;62686;48.984;8.394;2023-11-21T14:57:44;10.80;99.90
38866;DHT22;62686;48.984;8.394;2023-11-21T15:00:17;10.80;99.90
38866;DHT22;62686;48.984;8.394;2023-11-21T15:03:05;10.80;99.90
38866;DHT22;62686;48.984;8.394;2023-11-21T15:05:36;10.70;99.90
38866;DHT22;62686;48.984;8.394;2023-11-21T15:08:06;10.60;99.90
38866;DHT22;62686;48.984;8.394;2023-11-21T15:10:47;10.50;99.90
38866;DHT22;62686;48.984;8.394;2023-11-21T15:13:21;10.40;99.90
38866;DHT22;62686;48.984;8.394;2023-11-21T15:15:51;10.30;99.90
38866;DHT22;62686;48.984;8.394;2023-11-21T15:18:21;10.20;99.90
38866;DHT22;62686;48.984;8.394;2023-11-21T15:20:49;10.20;99.90
38866;DHT22;62686;48.984;8.394;2023-11-21T15:23:18;10.10;99.90
38866;DHT22;62686;48.984;8.394;2023-11-21T15:25:46;10.00;99.90
38866;DHT22;62686;48.984;8.394;2023-11-21T15:28:14;9.90;99.90
38866;DHT22;62686;48.984;8.394;2023-11-21T15:30:45;9.90;99.90
38866;DHT22;62686;48.984;8.394;2023-11-21T15:33:17;9.90;99.90
38866;DHT22;62686;48.984;8.394;2023-11-21T15:35:45;9.80;99.90
38866;DHT22;62686;48.984;8.394;2023-11-21T15:38:13;9.70;99.90
38866;DHT22;62686;48.984;8.394;2023-11-21T15:40:42;9.60;99.90
38866;DHT22;62686;48.984;8.394;2023-11-21T15:43:12;9.50;99.90
38866;DHT22;62686;48.984;8.394;2023-11-21T15:45:41;9.50;99.90
38866;DHT22;62686;48.984;8.394;2023-11-21T15:48:11;9.40;99.90
38866;DHT22;62686;48.984;8.394;2023-11-21T15:50:39;9.40;99.90
38866;DHT22;62686;48.984;8.394;2023-11-21T15:53:08;9.30;99.90
38866;DHT22;62686;48.984;8.394;2023-11-21T15:55:36;9.20;99.90
38866;DHT22;62686;48.984;8.394;2023-11-21T15:58:09;9.10;99.90
38866;DHT22;62686;48.984;8.394;2023-11-21T16:00:37;9.10;99.90
38866;DHT22;62686;48.984;8.394;2023-11-21T16:03:06;9.00;99.90
38866;DHT22;62686;48.984;8.394;2023-11-21T16:05:37;8.90;99.90
38866;DHT22;62686;48.984;8.394;2023-11-21T16:08:06;8.80;99.90
38866;DHT22;62686;48.984;8.394;2023-11-21T16:10:34;8.70;99.90
38866;DHT22;62686;48.984;8.394;2023-11-21T16:13:03;8.50;99.90
38866;DHT22;62686;48.984;8.394;2023-11-21T16:15:31;8.50;99.90
38866;DHT22;62686;48.984;8.394;2023-11-21T16:18:00;8.40;99.90
38866;DHT22;62686;48.984;8.394;2023-11-21T16:20:29;8.20;99.90
38866;DHT22;62686;48.984;8.394;2023-11-21T16:22:58;8.10;99.90
38866;DHT22;62686;48.984;8.394;2023-11-21T16:25:36;8.10;99.90
38866;DHT22;62686;48.984;8.394;2023-11-21T16:28:04;8.00;99.90
38866;DHT22;62686;48.984;8.394;2023-11-21T16:30:33;7.90;99.90
38866;DHT22;62686;48.984;8.394;2023-11-21T16:33:02;7.90;99.90
38866;DHT22;62686;48.984;8.394;2023-11-21T16:35:30;7.90;99.90
38866;DHT22;62686;48.984;8.394;2023-11-21T16:38:00;7.80;99.90
38866;DHT22;62686;48.984;8.394;2023-11-21T16:40:30;7.70;99.90